Time;durP1;ratioP1;P1;durP2;ratioP2;P2;SDS_P1;SDS_P2;PMS_P1;PMS_P2;Temp;Humidity;BMP_temperature;BMP_pressure;BME280_temperature;BME280_humidity;BME280_pressure;Samples;Min_cycle;Max_cycle;Signal;HPM_P1;HPM_P2
2022/07/02 00:00:41;;;;;;;6.70;3.20;;;14.10;99.90;;;;;;4977433;28;20545;-87
2022/07/02 00:03:07;;;;;;;7.13;2.90;;;14.00;99.90;;;;;;4977103;28;20133;-85
2022/07/02 00:05:32;;;;;;;5.30;3.10;;;14.00;99.90;;;;;;4961569;28;20126;-85
2022/07/02 00:07:58;;;;;;;3.75;3.10;;;14.00;99.90;;;;;;4960876;28;20065;-86
2022/07/02 00:10:24;;;;;;;7.85;3.13;;;14.00;99.90;;;;;;4961074;28;20129;-87
2022/07/02 00:12:50;;;;;;;5.90;2.92;;;13.90;99.90;;;;;;4945716;28;20042;-86
2022/07/02 00:15:16;;;;;;;6.60;3.30;;;13.90;99.90;;;;;;4977538;28;20086;-85
2022/07/02 00:17:41;;;;;;;3.67;2.85;;;14.90;99.90;;;;;;4945092;28;20046;-85
2022/07/02 00:20:08;;;;;;;3.75;3.35;;;13.80;99.90;;;;;;4977410;28;20057;-85
2022/07/02 00:22:33;;;;;;;5.25;3.20;;;13.80;99.90;;;;;;4976716;28;20056;-85
2022/07/02 00:24:59;;;;;;;4.70;3.17;;;13.80;99.90;;;;;;4945314;28;20058;-87
2022/07/02 00:27:26;;;;;;;5.28;3.22;;;13.70;99.90;;;;;;4977289;28;20050;-85
2022/07/02 00:30:01;;;;;;;3.85;3.10;;;13.70;99.90;;;;;;4977478;28;20495;-86
2022/07/02 00:32:28;;;;;;;7.25;3.22;;;13.70;99.90;;;;;;4994343;28;20050;-85
2022/07/02 00:34:54;;;;;;;4.93;3.65;;;13.70;99.90;;;;;;4963265;28;20046;-85
2022/07/02 00:37:21;;;;;;;6.57;2.97;;;13.70;99.90;;;;;;4975902;28;20053;-89
2022/07/02 00:39:46;;;;;;;10.13;3.58;;;13.60;99.90;;;;;;4970842;28;20034;-85
2022/07/02 00:42:12;;;;;;;9.02;3.33;;;13.70;99.90;;;;;;5000495;28;20140;-85
2022/07/02 00:44:38;;;;;;;6.40;3.45;;;13.60;99.90;;;;;;4983280;28;20053;-85
2022/07/02 00:47:05;;;;;;;6.93;3.30;;;13.60;99.90;;;;;;4952027;28;20054;-85
2022/07/02 00:49:32;;;;;;;6.03;3.40;;;13.60;99.90;;;;;;4968116;28;20085;-85
2022/07/02 00:51:59;;;;;;;7.38;3.35;;;13.60;99.90;;;;;;4984064;28;20035;-85
2022/07/02 00:54:24;;;;;;;5.75;3.70;;;13.50;99.90;;;;;;4968513;28;20057;-87
2022/07/02 00:56:53;;;;;;;6.43;3.47;;;13.50;99.90;;;;;;4967826;28;20422;-86
2022/07/02 00:59:23;;;;;;;5.57;3.33;;;13.50;99.90;;;;;;4967954;28;20478;-86
2022/07/02 01:01:49;;;;;;;6.40;3.50;;;13.50;99.90;;;;;;4951775;28;20092;-85
2022/07/02 01:04:15;;;;;;;7.60;3.83;;;13.50;99.90;;;;;;4967073;28;20062;-85
2022/07/02 01:06:44;;;;;;;6.03;3.25;;;13.50;99.90;;;;;;4983449;28;20052;-85
2022/07/02 01:11:55;;;;;;;9.38;3.42;;;13.40;99.90;;;;;;4970144;28;20493;-88
2022/07/02 01:14:20;;;;;;;9.80;4.55;;;13.40;99.90;;;;;;4967346;28;20054;-86
2022/07/02 01:16:46;;;;;;;5.55;2.97;;;13.40;99.90;;;;;;4967114;28;20039;-87
2022/07/02 01:19:15;;;;;;;6.65;4.03;;;13.30;99.90;;;;;;4967543;28;20038;-86
2022/07/02 01:22:10;;;;;;;3.50;3.20;;;13.30;99.90;;;;;;4951853;28;20051;-87
2022/07/02 01:24:36;;;;;;;6.70;3.60;;;13.30;99.90;;;;;;4983061;28;20512;-86
2022/07/02 01:27:02;;;;;;;9.40;4.32;;;13.30;99.90;;;;;;4967674;28;20133;-86
2022/07/02 01:29:27;;;;;;;5.70;3.53;;;13.30;99.90;;;;;;4966543;28;20045;-85
2022/07/02 01:31:53;;;;;;;7.13;3.70;;;13.20;99.90;;;;;;4982755;28;20047;-85
2022/07/02 01:34:19;;;;;;;7.35;3.60;;;13.20;99.90;;;;;;4966531;28;20112;-86
2022/07/02 01:36:44;;;;;;;5.68;3.78;;;13.20;99.90;;;;;;4966764;28;20061;-85
2022/07/02 01:39:10;;;;;;;5.60;3.60;;;13.20;99.90;;;;;;4982867;28;20081;-85
2022/07/02 01:41:38;;;;;;;10.73;3.90;;;13.10;99.90;;;;;;4967271;28;20038;-85
2022/07/02 01:44:04;;;;;;;6.75;3.53;;;13.10;99.90;;;;;;4999984;28;20050;-85
2022/07/02 01:46:30;;;;;;;6.70;4.13;;;13.10;99.90;;;;;;4982397;28;20388;-87
2022/07/02 01:48:55;;;;;;;6.25;3.55;;;13.00;99.90;;;;;;4982202;28;20101;-85
2022/07/02 01:51:21;;;;;;;5.63;3.95;;;13.10;99.90;;;;;;4966491;28;20046;-85
2022/07/02 01:53:47;;;;;;;13.18;4.30;;;13.10;99.90;;;;;;4982663;28;20108;-85
2022/07/02 01:56:12;;;;;;;6.50;3.97;;;13.20;99.90;;;;;;5000065;28;20050;-87
2022/07/02 01:58:38;;;;;;;4.85;3.53;;;13.10;99.90;;;;;;4980290;28;20090;-85
2022/07/02 02:01:03;;;;;;;7.35;3.97;;;13.10;99.90;;;;;;4947476;28;20050;-85
2022/07/02 02:03:29;;;;;;;8.80;4.47;;;13.10;99.90;;;;;;4979481;28;20049;-86
2022/07/02 02:05:55;;;;;;;8.63;4.05;;;13.10;99.90;;;;;;4980012;28;20100;-85
2022/07/02 02:08:21;;;;;;;6.00;4.05;;;13.10;99.90;;;;;;4964333;28;20069;-84
2022/07/02 02:10:46;;;;;;;7.90;3.90;;;13.10;99.90;;;;;;4980150;28;20046;-84
2022/07/02 02:13:12;;;;;;;5.85;3.45;;;13.10;99.90;;;;;;4963103;28;20465;-86
2022/07/02 02:15:37;;;;;;;5.22;3.90;;;13.10;99.90;;;;;;4979321;28;20050;-86
2022/07/02 02:18:03;;;;;;;6.53;3.78;;;13.00;99.90;;;;;;4996594;28;20494;-85
2022/07/02 02:20:29;;;;;;;6.55;3.70;;;13.00;99.90;;;;;;4979347;28;20054;-86
2022/07/02 02:22:55;;;;;;;6.78;3.97;;;13.00;99.90;;;;;;4962852;28;20046;-85
2022/07/02 02:25:21;;;;;;;11.27;4.38;;;12.90;99.90;;;;;;4996376;28;20069;-84
2022/07/02 02:27:47;;;;;;;8.70;4.68;;;12.90;99.90;;;;;;4963135;28;20054;-84
2022/07/02 02:30:13;;;;;;;9.05;4.10;;;12.90;99.90;;;;;;4979120;28;20406;-86
2022/07/02 02:32:39;;;;;;;6.65;4.38;;;12.90;99.90;;;;;;4979242;28;20133;-85
2022/07/02 02:35:05;;;;;;;6.10;4.40;;;12.80;99.90;;;;;;4978966;28;20065;-85
2022/07/02 02:37:31;;;;;;;6.88;4.30;;;12.80;99.90;;;;;;4978976;28;20054;-85
2022/07/02 02:39:57;;;;;;;6.07;4.53;;;12.90;99.90;;;;;;4978787;28;20101;-85
2022/07/02 02:42:22;;;;;;;7.53;4.63;;;12.90;99.90;;;;;;4978708;28;20046;-86
2022/07/02 02:44:48;;;;;;;7.95;4.63;;;12.80;99.90;;;;;;4962918;28;20043;-85
2022/07/02 02:47:14;;;;;;;9.10;5.20;;;12.80;99.90;;;;;;4996823;28;20130;-86
2022/07/02 02:49:40;;;;;;;6.90;4.82;;;12.80;99.90;;;;;;4963240;28;20449;-85
2022/07/02 02:52:06;;;;;;;10.63;4.82;;;12.80;99.90;;;;;;4995801;28;20038;-85
2022/07/02 02:54:32;;;;;;;7.68;4.80;;;12.80;99.90;;;;;;4962683;28;20046;-85
2022/07/02 02:56:57;;;;;;;7.53;5.00;;;12.90;99.90;;;;;;4962541;28;20444;-85
2022/07/02 02:59:23;;;;;;;8.18;4.85;;;12.80;99.90;;;;;;4979357;28;20120;-87
2022/07/02 03:01:48;;;;;;;8.60;5.43;;;12.90;99.90;;;;;;4978378;28;20452;-86
2022/07/02 03:04:14;;;;;;;7.13;5.03;;;12.80;99.90;;;;;;4978755;28;20542;-86
2022/07/02 03:06:40;;;;;;;7.63;4.80;;;12.80;99.90;;;;;;4978500;28;20398;-85
2022/07/02 03:09:05;;;;;;;11.70;4.70;;;12.80;99.90;;;;;;4978063;28;20054;-84
2022/07/02 03:11:31;;;;;;;12.68;5.20;;;12.80;99.90;;;;;;4962017;28;20479;-86
2022/07/02 03:13:57;;;;;;;5.05;4.55;;;12.80;99.90;;;;;;4978788;28;20129;-85
2022/07/02 03:16:23;;;;;;;7.78;5.30;;;12.80;99.90;;;;;;4978212;28;20196;-85
2022/07/02 03:18:49;;;;;;;9.55;4.95;;;12.90;99.90;;;;;;4946387;28;20053;-86
2022/07/02 03:21:14;;;;;;;8.32;4.88;;;12.80;99.90;;;;;;4961952;28;20054;-87
2022/07/02 03:23:40;;;;;;;10.43;5.53;;;12.80;99.90;;;;;;4977947;28;20129;-84
2022/07/02 03:26:06;;;;;;;12.38;5.80;;;12.80;99.90;;;;;;4961617;28;20050;-85
2022/07/02 03:28:31;;;;;;;6.93;5.00;;;12.80;99.90;;;;;;4946678;28;20431;-85
2022/07/02 03:30:57;;;;;;;9.15;6.13;;;12.90;99.90;;;;;;4962009;28;20042;-84
2022/07/02 03:33:22;;;;;;;11.43;5.60;;;12.90;99.90;;;;;;4995005;28;20089;-85
2022/07/02 03:35:48;;;;;;;9.25;5.82;;;12.80;99.90;;;;;;4961655;28;20121;-85
2022/07/02 03:38:14;;;;;;;10.55;6.70;;;12.90;99.90;;;;;;4994905;28;20042;-86
2022/07/02 03:40:39;;;;;;;10.63;6.60;;;12.90;99.90;;;;;;4961609;28;20042;-86
2022/07/02 03:43:05;;;;;;;8.70;6.13;;;12.90;99.90;;;;;;4961378;28;20519;-87
2022/07/02 03:45:31;;;;;;;8.68;6.05;;;12.90;99.90;;;;;;4977817;28;20050;-85
2022/07/02 03:47:57;;;;;;;9.68;5.75;;;13.00;99.90;;;;;;4977909;28;20046;-86
2022/07/02 03:50:22;;;;;;;9.60;6.05;;;13.20;99.90;;;;;;4977784;28;20050;-85
2022/07/02 03:52:48;;;;;;;11.35;6.00;;;13.40;99.90;;;;;;4977488;28;20406;-85
2022/07/02 03:55:14;;;;;;;9.02;6.10;;;13.50;99.90;;;;;;4961908;28;20485;-85
2022/07/02 03:57:39;;;;;;;7.47;5.72;;;13.60;99.90;;;;;;4977744;28;20212;-87
2022/07/02 04:00:06;;;;;;;9.82;6.00;;;13.70;99.90;;;;;;4961322;28;20057;-86
2022/07/02 04:02:31;;;;;;;8.30;5.90;;;13.70;99.90;;;;;;4976980;28;20073;-87
2022/07/02 04:04:57;;;;;;;7.78;6.68;;;13.80;99.90;;;;;;4978139;28;20054;-86
2022/07/02 04:07:23;;;;;;;8.65;6.25;;;13.80;99.90;;;;;;4978059;28;20125;-86
2022/07/02 04:09:50;;;;;;;9.98;6.15;;;13.80;99.90;;;;;;5003328;28;20046;-85
2022/07/02 04:12:15;;;;;;;8.48;5.90;;;13.80;99.90;;;;;;5007075;28;20054;-86
2022/07/02 04:14:41;;;;;;;9.63;6.60;;;13.80;99.90;;;;;;5003890;28;20120;-86
2022/07/02 04:17:06;;;;;;;7.68;6.00;;;13.80;99.90;;;;;;5004020;28;20053;-88
2022/07/02 04:19:32;;;;;;;8.23;7.43;;;13.80;99.90;;;;;;4981428;28;20061;-85
2022/07/02 04:22:01;;;;;;;9.88;6.90;;;13.70;99.90;;;;;;4977599;28;20391;-84
2022/07/02 04:24:28;;;;;;;9.32;7.47;;;13.80;99.90;;;;;;4963461;28;20054;-86
2022/07/02 04:26:54;;;;;;;8.02;7.22;;;13.80;99.90;;;;;;4977649;28;20050;-84
2022/07/02 04:29:19;;;;;;;9.70;7.65;;;13.80;99.90;;;;;;4994812;28;20056;-86
2022/07/02 04:31:45;;;;;;;10.65;8.10;;;13.70;99.90;;;;;;4977015;28;20050;-85
2022/07/02 04:34:11;;;;;;;12.73;7.40;;;13.70;99.90;;;;;;4977200;28;20054;-85
2022/07/02 04:36:39;;;;;;;10.20;7.93;;;13.80;99.90;;;;;;4995172;28;20058;-84
2022/07/02 04:39:05;;;;;;;10.52;8.10;;;13.80;99.90;;;;;;4994176;28;20056;-84
2022/07/02 04:41:30;;;;;;;12.82;8.70;;;13.90;99.90;;;;;;4977326;28;20105;-85
2022/07/02 04:43:56;;;;;;;9.20;7.55;;;14.40;99.90;;;;;;4977895;28;20050;-85
2022/07/02 04:46:22;;;;;;;11.13;7.22;;;15.10;99.90;;;;;;4994457;28;20096;-86
2022/07/02 04:48:47;;;;;;;10.57;6.90;;;15.80;99.90;;;;;;4977213;28;20050;-85
2022/07/02 04:51:13;;;;;;;10.07;6.20;;;16.60;99.90;;;;;;4961608;28;20152;-85
2022/07/02 04:53:38;;;;;;;8.93;6.28;;;17.30;99.90;;;;;;4960666;28;20602;-85
2022/07/02 04:56:04;;;;;;;8.18;5.90;;;17.90;99.90;;;;;;4995186;28;20133;-85
2022/07/02 04:58:30;;;;;;;6.82;5.30;;;18.50;99.90;;;;;;4995016;28;20054;-86
2022/07/02 05:00:55;;;;;;;7.63;5.63;;;18.90;99.90;;;;;;4945780;28;20478;-88
2022/07/02 05:03:21;;;;;;;8.52;5.20;;;19.30;99.90;;;;;;4976539;28;20047;-85
2022/07/02 05:05:46;;;;;;;5.70;4.70;;;19.60;99.90;;;;;;4977190;28;20078;-85
2022/07/02 05:08:12;;;;;;;5.50;4.47;;;20.10;99.90;;;;;;4960814;28;20573;-86
2022/07/02 05:10:38;;;;;;;8.48;4.68;;;20.10;99.90;;;;;;4977199;28;20418;-85
2022/07/02 05:13:06;;;;;;;9.85;4.45;;;20.30;99.90;;;;;;4977617;28;20518;-87
2022/07/02 05:15:32;;;;;;;7.38;4.15;;;20.30;99.90;;;;;;4960966;28;20561;-87
2022/07/02 05:17:57;;;;;;;5.10;4.13;;;20.20;99.90;;;;;;4977488;28;20069;-87
2022/07/02 05:20:23;;;;;;;8.38;4.25;;;21.00;99.90;;;;;;4976590;28;20065;-86
2022/07/02 05:22:49;;;;;;;9.02;4.28;;;20.90;99.90;;;;;;4977110;28;20352;-85
2022/07/02 05:25:14;;;;;;;5.10;3.78;;;21.00;99.90;;;;;;4944162;28;20486;-86
2022/07/02 05:27:40;;;;;;;8.32;3.95;;;21.20;99.90;;;;;;4961247;28;20150;-85
2022/07/02 05:30:06;;;;;;;7.00;3.58;;;21.30;99.90;;;;;;4975929;28;20058;-86
2022/07/02 05:32:32;;;;;;;6.15;3.80;;;21.40;99.90;;;;;;4961453;28;20047;-86
2022/07/02 05:34:57;;;;;;;8.35;3.78;;;21.10;99.90;;;;;;4979885;28;20046;-93
2022/07/02 05:37:23;;;;;;;5.20;3.30;;;21.50;99.90;;;;;;4963996;28;20058;-88
2022/07/02 05:39:49;;;;;;;7.20;3.60;;;21.80;99.90;;;;;;4980719;28;20050;-86
2022/07/02 05:42:14;;;;;;;7.10;3.10;;;22.20;99.90;;;;;;4980396;28;20391;-86
2022/07/02 05:44:40;;;;;;;5.05;3.03;;;21.30;99.90;;;;;;4979975;28;20145;-86
2022/07/02 05:47:06;;;;;;;4.72;3.20;;;22.30;99.90;;;;;;4979891;28;20062;-86
2022/07/02 05:49:31;;;;;;;5.65;3.20;;;22.40;99.90;;;;;;4963769;28;20055;-86
2022/07/02 05:51:57;;;;;;;8.20;3.75;;;21.50;99.90;;;;;;4979785;28;20395;-87
2022/07/02 05:54:22;;;;;;;8.73;3.63;;;22.20;99.90;;;;;;4980368;28;20486;-86
2022/07/02 05:56:48;;;;;;;4.90;3.00;;;22.30;99.90;;;;;;4979911;28;20050;-87
2022/07/02 05:59:14;;;;;;;4.55;2.65;;;22.50;99.90;;;;;;4963835;28;20046;-86
2022/07/02 06:01:39;;;;;;;6.00;2.60;;;22.60;99.90;;;;;;4979667;28;20188;-87
2022/07/02 06:04:05;;;;;;;4.93;2.72;;;23.00;99.90;;;;;;4980329;28;20463;-86
2022/07/02 06:09:15;;;;;;;4.45;2.70;;;23.00;99.90;;;;;;4979826;28;20058;-87
2022/07/02 06:11:40;;;;;;;4.88;3.15;;;23.20;99.90;;;;;;4996547;28;20046;-87
2022/07/02 06:14:07;;;;;;;5.45;2.67;;;23.40;99.90;;;;;;4979447;28;20069;-86
2022/07/02 06:16:32;;;;;;;4.55;2.55;;;23.00;99.90;;;;;;4979931;28;20050;-88
2022/07/02 06:18:58;;;;;;;3.30;2.47;;;23.20;99.90;;;;;;4996523;28;20054;-88
2022/07/02 06:21:24;;;;;;;5.03;2.50;;;23.30;99.90;;;;;;4963375;28;20056;-88
2022/07/02 06:23:49;;;;;;;3.17;2.10;;;23.70;99.90;;;;;;4978973;28;20134;-88
2022/07/02 06:26:15;;;;;;;5.03;1.85;;;23.60;99.90;;;;;;4979521;28;20136;-88
2022/07/02 06:28:40;;;;;;;3.55;2.15;;;24.20;99.90;;;;;;4963034;28;20061;-87
2022/07/02 06:31:06;;;;;;;3.63;2.20;;;23.70;99.90;;;;;;4979056;28;20053;-88
2022/07/02 06:33:32;;;;;;;3.83;2.53;;;23.50;99.90;;;;;;4947331;28;20088;-88
2022/07/02 06:35:57;;;;;;;5.28;2.65;;;24.10;99.90;;;;;;4963211;28;20046;-88
2022/07/02 06:38:23;;;;;;;2.80;2.10;;;23.90;99.90;;;;;;4979701;28;20450;-87
2022/07/02 06:40:49;;;;;;;4.97;2.25;;;23.80;99.90;;;;;;4978663;28;20054;-88
2022/07/02 06:43:14;;;;;;;3.38;1.98;;;23.90;99.90;;;;;;4962325;28;20053;-87
2022/07/02 06:45:40;;;;;;;3.75;1.70;;;24.00;99.90;;;;;;4979119;28;20084;-88
2022/07/02 06:48:06;;;;;;;2.83;1.70;;;24.30;99.90;;;;;;4998172;28;20050;-88
2022/07/02 06:50:31;;;;;;;3.78;1.63;;;24.30;99.90;;;;;;4980074;28;20078;-88
2022/07/02 06:52:57;;;;;;;4.40;1.60;;;24.60;99.90;;;;;;4963652;28;20050;-88
2022/07/02 06:55:22;;;;;;;2.67;1.60;;;25.00;99.90;;;;;;4996077;28;20056;-88
2022/07/02 06:57:49;;;;;;;4.20;1.63;;;25.00;99.90;;;;;;4962633;28;20141;-88
2022/07/02 07:00:15;;;;;;;3.65;1.58;;;24.50;99.90;;;;;;4963048;28;20071;-88
2022/07/02 07:02:41;;;;;;;3.33;1.58;;;24.80;99.90;;;;;;4946394;28;20050;-88
2022/07/02 07:05:07;;;;;;;4.30;1.75;;;24.80;99.90;;;;;;4947565;28;20084;-88
2022/07/02 07:07:34;;;;;;;3.00;1.70;;;25.50;99.90;;;;;;4948458;28;20089;-88
2022/07/02 07:10:00;;;;;;;3.42;1.50;;;25.40;99.90;;;;;;4978441;28;20513;-88
2022/07/02 07:12:26;;;;;;;3.03;1.70;;;25.50;99.90;;;;;;4979022;28;20054;-88
2022/07/02 07:14:51;;;;;;;2.60;1.50;;;25.00;99.90;;;;;;4962339;28;20082;-88
2022/07/02 07:17:17;;;;;;;3.20;1.67;;;25.00;99.90;;;;;;4977750;28;20048;-88
2022/07/02 07:19:43;;;;;;;3.80;1.63;;;25.20;99.90;;;;;;4978164;28;20140;-87
2022/07/02 07:22:09;;;;;;;2.97;1.77;;;24.80;99.90;;;;;;4977884;28;20046;-88
2022/07/02 07:24:35;;;;;;;2.72;1.60;;;25.00;99.90;;;;;;4978578;28;20057;-88
2022/07/02 07:27:01;;;;;;;5.60;1.80;;;24.60;99.90;;;;;;4996048;28;20050;-87
2022/07/02 07:29:26;;;;;;;3.55;1.30;;;25.50;99.90;;;;;;4946330;28;20368;-88
2022/07/02 07:31:52;;;;;;;3.13;1.30;;;25.80;99.60;;;;;;4961889;28;20073;-88
2022/07/02 07:34:18;;;;;;;2.25;1.27;;;25.50;99.30;;;;;;4962101;28;20058;-87
2022/07/02 07:36:43;;;;;;;1.65;1.30;;;25.80;99.30;;;;;;4962052;28;20050;-87
2022/07/02 07:39:09;;;;;;;4.05;1.50;;;26.10;98.90;;;;;;4978587;28;20054;-88
2022/07/02 07:41:35;;;;;;;2.92;1.17;;;25.20;99.40;;;;;;4977660;28;20402;-88
2022/07/02 07:44:01;;;;;;;2.17;1.20;;;25.30;98.50;;;;;;4977685;28;20053;-88
2022/07/02 07:46:26;;;;;;;4.93;1.70;;;25.70;99.50;;;;;;5015564;28;20050;-87
2022/07/02 07:48:52;;;;;;;2.20;1.48;;;25.40;99.50;;;;;;4978151;28;20114;-89
2022/07/02 07:51:18;;;;;;;1.95;1.30;;;25.30;99.50;;;;;;4997883;28;20081;-88
2022/07/02 07:53:44;;;;;;;2.63;1.48;;;25.50;99.90;;;;;;4974818;28;20068;-88
2022/07/02 07:56:10;;;;;;;3.85;1.60;;;25.50;99.20;;;;;;4979509;28;20061;-87
2022/07/02 07:58:36;;;;;;;3.53;1.20;;;25.90;99.90;;;;;;4946877;28;20129;-87
2022/07/02 08:01:02;;;;;;;1.60;0.95;;;26.00;99.20;;;;;;4978758;28;20093;-87
2022/07/02 08:03:28;;;;;;;1.80;0.93;;;25.20;98.90;;;;;;4962597;28;20082;-87
2022/07/02 08:05:56;;;;;;;2.20;1.20;;;25.80;98.90;;;;;;4979616;28;20058;-87
2022/07/02 08:08:22;;;;;;;3.22;1.10;;;25.20;98.90;;;;;;4978856;28;20057;-88
2022/07/02 08:10:47;;;;;;;1.80;0.90;;;25.80;98.80;;;;;;4977961;28;20050;-87
2022/07/02 08:13:13;;;;;;;1.70;1.08;;;25.30;98.60;;;;;;4979037;28;20066;-87
2022/07/02 08:15:39;;;;;;;2.45;1.10;;;25.50;98.70;;;;;;4978351;28;20058;-88
2022/07/02 08:18:04;;;;;;;2.08;1.10;;;26.00;98.80;;;;;;4977890;28;20042;-88
2022/07/02 08:20:30;;;;;;;2.05;0.80;;;26.00;97.60;;;;;;4961670;28;20054;-88
2022/07/02 08:22:56;;;;;;;2.65;1.05;;;26.00;98.20;;;;;;4977214;28;20042;-88
2022/07/02 08:25:21;;;;;;;1.63;1.13;;;26.60;97.90;;;;;;4978618;28;20387;-88
2022/07/02 08:27:47;;;;;;;2.72;1.20;;;26.00;97.70;;;;;;4961961;28;20053;-88
2022/07/02 08:30:13;;;;;;;2.53;1.00;;;26.30;97.30;;;;;;4994873;28;20142;-87
2022/07/02 08:32:39;;;;;;;2.63;1.00;;;26.20;97.90;;;;;;4994969;28;20046;-88
2022/07/02 08:35:05;;;;;;;1.73;0.90;;;25.50;97.10;;;;;;4944969;28;20053;-88
2022/07/02 08:37:31;;;;;;;1.27;0.90;;;25.80;98.50;;;;;;4961580;28;20049;-87
2022/07/02 08:39:56;;;;;;;2.45;1.10;;;26.00;98.30;;;;;;4977082;28;20050;-85
2022/07/02 08:42:27;;;;;;;1.00;1.00;;;26.40;97.20;;;;;;4961264;28;20050;-88
2022/07/02 08:44:53;;;;;;;3.47;0.90;;;26.70;96.90;;;;;;4944957;28;20073;-87
2022/07/02 08:47:18;;;;;;;1.88;1.00;;;25.80;97.20;;;;;;4976705;28;20046;-88
2022/07/02 08:49:45;;;;;;;2.65;1.10;;;26.70;96.80;;;;;;4945615;28;20228;-89
2022/07/02 08:52:12;;;;;;;1.10;0.80;;;26.50;96.40;;;;;;4976790;28;20467;-87
2022/07/02 08:54:37;;;;;;;1.90;1.02;;;25.70;97.80;;;;;;4961074;28;20125;-89
2022/07/02 08:57:03;;;;;;;1.17;0.70;;;26.00;97.00;;;;;;4960491;28;20137;-89
2022/07/02 08:59:32;;;;;;;0.85;0.63;;;26.30;97.40;;;;;;4976674;28;20060;-89
2022/07/02 09:01:59;;;;;;;1.00;0.70;;;25.90;95.50;;;;;;4961149;28;20057;-89
2022/07/02 09:04:25;;;;;;;1.52;0.70;;;26.20;95.80;;;;;;4977262;28;20113;-88
2022/07/02 09:06:57;;;;;;;0.82;0.63;;;26.30;95.80;;;;;;4961383;28;20058;-89
2022/07/02 09:09:26;;;;;;;0.98;0.70;;;26.30;95.70;;;;;;4966726;28;20054;-89
2022/07/02 09:11:52;;;;;;;2.40;0.70;;;26.20;95.90;;;;;;4951592;28;20046;-90
2022/07/02 09:14:18;;;;;;;1.92;0.60;;;26.40;96.10;;;;;;4988360;28;20060;-88
2022/07/02 09:16:44;;;;;;;1.65;0.80;;;26.40;95.70;;;;;;4968542;28;20054;-86
2022/07/02 09:19:09;;;;;;;1.25;0.90;;;26.50;96.00;;;;;;4949513;28;20054;-89
2022/07/02 09:21:48;;;;;;;1.73;0.60;;;26.20;96.40;;;;;;4997637;28;20452;-89
2022/07/02 09:24:14;;;;;;;1.25;0.70;;;26.40;95.70;;;;;;4966948;28;20046;-88
2022/07/02 09:26:40;;;;;;;1.25;0.80;;;26.10;95.50;;;;;;4981669;28;20465;-87
2022/07/02 09:29:05;;;;;;;0.77;0.68;;;25.70;95.50;;;;;;4980368;28;20042;-89
2022/07/02 09:31:31;;;;;;;1.20;0.70;;;26.20;95.70;;;;;;4964612;28;20050;-89
2022/07/02 09:33:58;;;;;;;2.42;0.68;;;26.70;95.80;;;;;;4949025;28;20050;-90
2022/07/02 09:36:24;;;;;;;1.58;1.00;;;27.10;95.20;;;;;;4980726;28;20133;-88
2022/07/02 09:38:51;;;;;;;1.77;0.90;;;26.80;95.20;;;;;;4964168;28;20073;-89
2022/07/02 09:41:21;;;;;;;0.65;0.52;;;26.80;95.00;;;;;;4963856;28;20107;-89
2022/07/02 09:43:58;;;;;;;1.25;0.80;;;27.10;95.30;;;;;;4963691;28;20046;-88
2022/07/02 09:46:23;;;;;;;1.25;0.82;;;27.50;94.60;;;;;;4980703;28;20050;-88
2022/07/02 09:48:49;;;;;;;2.45;0.75;;;27.10;94.90;;;;;;4964313;28;20145;-87
2022/07/02 09:51:15;;;;;;;2.58;0.90;;;27.40;95.70;;;;;;4966318;28;20042;-88
2022/07/02 09:53:51;;;;;;;2.45;0.80;;;26.70;95.30;;;;;;4980528;28;20060;-87
2022/07/02 09:56:18;;;;;;;1.17;0.70;;;26.10;94.50;;;;;;4979476;28;20062;-88
2022/07/02 09:58:44;;;;;;;1.63;0.80;;;25.80;95.10;;;;;;4948062;28;20052;-88
2022/07/02 10:01:09;;;;;;;1.40;0.70;;;26.70;95.70;;;;;;4963084;28;20125;-87
2022/07/02 10:03:48;;;;;;;1.35;0.90;;;26.50;95.70;;;;;;4996386;28;20038;-88
2022/07/02 10:06:14;;;;;;;2.22;0.80;;;26.60;95.80;;;;;;4979530;28;20050;-88
2022/07/02 10:08:41;;;;;;;2.35;0.80;;;26.00;95.60;;;;;;4963217;28;20454;-87
2022/07/02 10:11:08;;;;;;;1.48;0.85;;;26.20;95.40;;;;;;4996659;28;20483;-88
2022/07/02 10:13:33;;;;;;;2.65;1.42;;;26.50;95.20;;;;;;4947754;28;20510;-89
2022/07/02 10:16:00;;;;;;;1.05;0.88;;;26.60;94.60;;;;;;4979142;28;20050;-89
2022/07/02 10:18:26;;;;;;;1.38;0.60;;;26.70;95.40;;;;;;4978715;28;20046;-87
2022/07/02 10:20:52;;;;;;;0.98;0.70;;;26.80;95.30;;;;;;4946771;28;20097;-89
2022/07/02 10:23:18;;;;;;;2.90;0.73;;;27.10;95.00;;;;;;4947139;28;20050;-89
2022/07/02 10:25:43;;;;;;;0.65;0.60;;;26.20;94.80;;;;;;4964209;28;20062;-89
2022/07/02 10:28:09;;;;;;;1.70;0.80;;;26.10;94.70;;;;;;4962493;28;20046;-88
2022/07/02 10:30:34;;;;;;;1.02;0.70;;;25.80;95.90;;;;;;4963172;28;20099;-88
2022/07/02 10:33:03;;;;;;;1.50;0.80;;;25.10;96.00;;;;;;4946949;28;20383;-87
2022/07/02 10:35:29;;;;;;;1.25;0.70;;;25.60;95.70;;;;;;4996487;28;20050;-88
2022/07/02 10:37:58;;;;;;;1.45;0.70;;;25.70;96.00;;;;;;4978629;28;20395;-88
2022/07/02 10:40:24;;;;;;;1.50;0.70;;;26.20;95.90;;;;;;4963115;28;20414;-87
2022/07/02 10:42:50;;;;;;;1.05;0.80;;;26.60;95.60;;;;;;4978087;28;20042;-89
2022/07/02 10:45:19;;;;;;;1.52;0.80;;;26.40;95.60;;;;;;4962585;28;20050;-88
2022/07/02 10:48:04;;;;;;;3.17;0.80;;;26.00;96.00;;;;;;4962712;28;20054;-88
2022/07/02 10:50:35;;;;;;;1.65;0.70;;;25.80;95.40;;;;;;4978323;28;20082;-88
2022/07/02 10:53:13;;;;;;;1.48;0.80;;;25.50;95.00;;;;;;4995710;28;20050;-88
2022/07/02 10:55:44;;;;;;;0.68;0.60;;;26.10;95.90;;;;;;4962438;28;20522;-88
2022/07/02 10:58:19;;;;;;;0.57;0.57;;;26.70;95.40;;;;;;4978596;28;20057;-86
2022/07/02 11:00:44;;;;;;;2.00;0.70;;;26.40;94.60;;;;;;4996087;28;20386;-89
2022/07/02 11:03:12;;;;;;;1.05;0.60;;;26.00;94.90;;;;;;4978154;28;20153;-88
2022/07/02 11:06:06;;;;;;;1.50;0.70;;;26.50;95.40;;;;;;4963057;28;20050;-87
2022/07/02 11:08:44;;;;;;;1.45;0.75;;;26.20;95.00;;;;;;4948320;28;20185;-87
2022/07/02 11:11:11;;;;;;;1.10;0.60;;;26.30;94.90;;;;;;4997117;28;20510;-87
2022/07/02 11:13:41;;;;;;;0.60;0.60;;;26.50;96.10;;;;;;4962410;28;20110;-86
2022/07/02 11:16:24;;;;;;;0.60;0.60;;;26.70;94.70;;;;;;4995909;28;20046;-87
2022/07/02 11:18:50;;;;;;;1.80;0.70;;;27.00;94.30;;;;;;4964008;28;20479;-87
2022/07/02 11:21:17;;;;;;;1.90;0.88;;;27.40;95.60;;;;;;4995759;28;20282;-88
2022/07/02 11:23:42;;;;;;;0.90;0.70;;;27.40;95.80;;;;;;4948830;28;20049;-89
2022/07/02 11:26:08;;;;;;;1.33;0.60;;;27.40;95.10;;;;;;4989236;28;20057;-87
2022/07/02 11:28:38;;;;;;;1.95;0.70;;;26.50;95.10;;;;;;4962224;28;20409;-87
2022/07/02 11:31:04;;;;;;;1.77;0.70;;;26.20;94.70;;;;;;4995159;28;20106;-88
2022/07/02 11:33:33;;;;;;;0.77;0.65;;;26.10;95.60;;;;;;4978233;28;20046;-88
2022/07/02 11:35:59;;;;;;;1.50;0.60;;;25.80;94.70;;;;;;4962594;28;20353;-89
2022/07/02 11:38:25;;;;;;;1.15;0.60;;;25.70;95.50;;;;;;4982350;28;20070;-87
2022/07/02 11:40:51;;;;;;;1.40;0.80;;;25.50;95.70;;;;;;4978263;28;20089;-87
2022/07/02 11:43:17;;;;;;;1.17;0.70;;;25.10;95.60;;;;;;4978250;28;20046;-86
2022/07/02 11:45:46;;;;;;;2.00;0.70;;;24.80;96.60;;;;;;4977975;28;20104;-87
2022/07/02 11:48:22;;;;;;;1.30;0.75;;;25.30;96.50;;;;;;4978296;28;20050;-88
2022/07/02 11:51:00;;;;;;;2.60;1.00;;;25.20;95.70;;;;;;4962898;28;20048;-87
2022/07/02 11:53:26;;;;;;;1.60;0.82;;;25.10;96.40;;;;;;4995664;28;20077;-87
2022/07/02 11:55:52;;;;;;;1.85;0.90;;;25.60;96.60;;;;;;4978653;28;20073;-88
2022/07/02 11:58:17;;;;;;;2.10;0.95;;;26.10;96.70;;;;;;4962548;28;20101;-88
2022/07/02 12:00:43;;;;;;;1.85;0.80;;;26.50;96.80;;;;;;4977839;28;20057;-87
2022/07/02 12:03:12;;;;;;;2.25;0.90;;;26.30;95.50;;;;;;4961716;28;20107;-89
2022/07/02 12:05:49;;;;;;;0.95;0.75;;;26.10;95.60;;;;;;4930208;28;20058;-90
2022/07/02 12:08:16;;;;;;;2.38;0.90;;;26.30;95.30;;;;;;4961957;28;20471;-89
2022/07/02 12:10:41;;;;;;;1.73;0.98;;;26.30;95.80;;;;;;4962382;28;20065;-88
2022/07/02 12:13:10;;;;;;;3.47;1.15;;;26.00;95.90;;;;;;4961687;28;20050;-88
2022/07/02 12:15:46;;;;;;;3.03;1.10;;;25.80;96.00;;;;;;4945364;28;20549;-89
2022/07/02 12:18:19;;;;;;;3.42;1.00;;;26.00;96.00;;;;;;4946644;28;20204;-88
2022/07/02 12:20:45;;;;;;;1.55;0.80;;;26.10;96.40;;;;;;4977209;28;20050;-89
2022/07/02 12:23:11;;;;;;;2.85;0.82;;;26.10;97.50;;;;;;4945743;28;20489;-88
2022/07/02 12:25:47;;;;;;;2.03;0.82;;;26.10;96.90;;;;;;4977493;28;20057;-89
2022/07/02 12:30:59;;;;;;;1.75;0.90;;;26.40;96.80;;;;;;4950356;28;20490;-88
2022/07/02 12:33:34;;;;;;;2.92;0.85;;;26.60;96.10;;;;;;4977277;28;20054;-88
2022/07/02 12:36:01;;;;;;;3.58;0.80;;;26.10;95.90;;;;;;4961016;28;20140;-89
2022/07/02 12:38:27;;;;;;;2.80;1.00;;;26.30;95.60;;;;;;4961147;28;20043;-87
2022/07/02 12:41:00;;;;;;;3.50;1.02;;;26.10;95.80;;;;;;4961976;28;20050;-87
2022/07/02 12:43:25;;;;;;;2.87;0.90;;;25.50;96.10;;;;;;4976663;28;20085;-86
2022/07/02 12:45:51;;;;;;;2.53;0.80;;;25.50;96.00;;;;;;4994350;28;20495;-87
2022/07/02 12:48:18;;;;;;;1.73;0.88;;;25.30;96.10;;;;;;4994580;28;20050;-87
2022/07/02 12:50:46;;;;;;;2.75;0.90;;;25.80;96.40;;;;;;4994433;28;20520;-87